Time;durP1;ratioP1;P1;durP2;ratioP2;P2;SDS_P1;SDS_P2;PMS_P1;PMS_P2;Temp;Humidity;BMP_temperature;BMP_pressure;BME280_temperature;BME280_humidity;BME280_pressure;Samples;Min_cycle;Max_cycle;Signal;HPM_P1;HPM_P2
2023/02/25 00:00:09;;;;;;;9.80;9.00;;;;;;;4.57;66.98;98240.73;110270;1265;23669;-83
2023/02/25 00:03:28;;;;;;;11.10;10.10;;;;;;;4.58;67.01;98235.16;109908;1269;23679;-83
2023/02/25 00:06:29;;;;;;;11.10;10.00;;;;;;;4.58;66.98;98225.51;109371;1275;22032;-83
2023/02/25 00:09:32;;;;;;;10.10;9.10;;;;;;;4.56;67.06;98228.56;109560;1271;23593;-82
2023/02/25 00:12:27;;;;;;;9.80;8.40;;;;;;;4.54;67.10;98232.42;109580;1270;21979;-85
2023/02/25 00:15:10;;;;;;;10.10;9.10;;;;;;;4.54;67.17;98221.77;109818;1270;23602;-83
2023/02/25 00:17:49;;;;;;;11.20;8.80;;;;;;;4.52;67.04;98215.27;109785;1270;21957;-83
2023/02/25 00:20:56;;;;;;;10.80;9.70;;;;;;;4.51;67.20;98215.53;109737;1265;22027;-82
2023/02/25 00:24:06;;;;;;;9.90;9.00;;;;;;;4.48;67.19;98210.66;110252;1258;22968;-84
2023/02/25 00:27:02;;;;;;;11.40;10.30;;;;;;;4.44;67.24;98211.00;110658;1259;21997;-81
2023/02/25 00:30:20;;;;;;;11.40;10.40;;;;;;;4.42;67.49;98211.27;110232;1263;22462;-82
2023/02/25 00:33:06;;;;;;;11.40;10.30;;;;;;;4.42;67.55;98203.52;110617;1263;22231;-83
2023/02/25 00:36:39;;;;;;;11.30;10.30;;;;;;;4.42;67.52;98198.01;110599;1260;22000;-83
2023/02/25 00:39:43;;;;;;;11.70;10.50;;;;;;;4.45;67.68;98200.11;110500;1263;22037;-84
2023/02/25 00:42:26;;;;;;;10.50;9.60;;;;;;;4.47;67.68;98198.48;110513;1264;21968;-84
2023/02/25 00:45:12;;;;;;;;;;;;;;;;;;;;;
2023/02/25 00:47:58;;;;;;;10.50;9.70;;;;;;;4.41;67.62;98187.42;110776;1259;22123;-83
2023/02/25 00:50:38;;;;;;;11.40;10.40;;;;;;;4.36;67.64;98180.08;110831;1257;24308;-82
2023/02/25 00:53:19;;;;;;;10.90;10.00;;;;;;;4.31;67.63;98175.96;110720;1263;21979;-82
2023/02/25 00:56:13;;;;;;;10.70;9.80;;;;;;;4.30;67.76;98179.45;110386;1263;23731;-83
2023/02/25 00:58:58;;;;;;;10.90;9.90;;;;;;;4.24;67.81;98177.17;110376;1263;21976;-84
2023/02/25 01:01:46;;;;;;;12.30;10.70;;;;;;;4.15;67.86;98171.92;110540;1265;23403;-83
2023/02/25 01:04:41;;;;;;;11.60;10.60;;;;;;;4.10;68.04;98170.25;110360;1264;22038;-86
2023/02/25 01:07:55;;;;;;;11.50;10.50;;;;;;;4.03;68.20;98169.02;110514;1265;22004;-85
2023/02/25 01:10:47;;;;;;;;;;;;;;;;;;;;;
2023/02/25 01:13:44;;;;;;;11.60;10.60;;;;;;;3.88;68.36;98162.81;110302;1265;21966;-81
2023/02/25 01:17:00;;;;;;;10.60;9.60;;;;;;;3.84;68.72;98159.05;110299;1266;22005;-84
2023/02/25 01:19:44;;;;;;;11.80;10.80;;;;;;;3.85;68.77;98159.15;110683;1260;21975;-82
2023/02/25 01:22:27;;;;;;;11.10;10.10;;;;;;;3.86;68.66;98156.52;110290;1266;22039;-83
2023/02/25 01:25:23;;;;;;;;;;;;;;;;;;;;;
2023/02/25 01:28:15;;;;;;;11.40;10.40;;;;;;;3.78;68.81;98152.27;109507;1268;21987;-82
2023/02/25 01:30:47;;;;;;;10.60;9.70;;;;;;;3.74;69.02;98153.33;109662;1268;23061;-82
2023/02/25 01:33:57;;;;;;;11.70;10.60;;;;;;;3.73;69.21;98151.61;110128;1267;22052;-82
2023/02/25 01:36:38;;;;;;;8.60;7.90;;;;;;;3.69;69.21;98148.56;109294;1274;21985;-83
2023/02/25 01:39:38;;;;;;;;;;;;;;;;;;;;;
2023/02/25 01:42:57;;;;;;;9.30;8.40;;;;;;;3.67;69.60;98141.23;108903;1273;22450;-82
2023/02/25 01:45:56;;;;;;;;;;;;;;;;;;;;;
2023/02/25 01:48:54;;;;;;;9.10;8.40;;;;;;;3.63;69.80;98137.27;110115;1269;23030;-83
2023/02/25 01:51:50;;;;;;;9.40;8.50;;;;;;;3.63;70.00;98131.41;109824;1268;22008;-85
2023/02/25 01:55:05;;;;;;;10.30;9.40;;;;;;;3.63;70.11;98123.67;110142;1268;22291;-83
2023/02/25 01:57:52;;;;;;;9.40;8.40;;;;;;;3.67;70.31;98119.55;109823;1268;21993;-83
2023/02/25 02:00:56;;;;;;;10.80;9.80;;;;;;;3.69;70.39;98116.52;110116;1263;24297;-82
2023/02/25 02:04:02;;;;;;;11.80;9.90;;;;;;;3.74;70.37;98114.25;109806;1266;21981;-82
2023/02/25 02:06:51;;;;;;;11.40;10.30;;;;;;;3.71;70.35;98107.16;109487;1273;22433;-82
2023/02/25 02:09:54;;;;;;;11.70;10.50;;;;;;;3.69;70.37;98107.59;109618;1274;22015;-83
2023/02/25 02:13:10;;;;;;;10.60;9.60;;;;;;;3.69;70.60;98106.20;109567;1267;23721;-82
2023/02/25 02:17:04;;;;;;;11.20;10.20;;;;;;;3.68;70.72;98101.42;110324;1267;24312;-82
2023/02/25 02:20:15;;;;;;;11.80;10.70;;;;;;;3.69;70.92;98101.39;110343;1267;22021;-80
2023/02/25 02:23:54;;;;;;;11.80;10.70;;;;;;;3.71;70.98;98100.09;110826;1261;21974;-84
2023/02/25 02:27:10;;;;;;;13.10;11.90;;;;;;;3.67;70.94;98098.04;110975;1257;23740;-83
2023/02/25 02:30:50;;;;;;;12.30;11.30;;;;;;;3.64;71.04;98096.12;110862;1261;21979;-82
2023/02/25 02:34:20;;;;;;;13.70;12.30;;;;;;;3.63;71.22;98094.12;110738;1261;21979;-82
2023/02/25 02:41:39;;;;;;;13.20;12.00;;;;;;;3.64;71.47;98080.96;110429;1267;23728;-83
2023/02/25 02:44:43;;;;;;;12.60;11.40;;;;;;;3.66;71.45;98078.66;110555;1259;22002;-82
2023/02/25 02:47:30;;;;;;;11.50;10.50;;;;;;;3.67;71.42;98078.27;110992;1259;23714;-83
2023/02/25 02:51:00;;;;;;;13.20;11.50;;;;;;;3.67;71.48;98074.11;110793;1259;23053;-83
2023/02/25 02:54:00;;;;;;;11.80;10.70;;;;;;;3.68;71.48;98074.94;110788;1259;23706;-80
2023/02/25 02:56:49;;;;;;;12.70;11.50;;;;;;;3.68;71.52;98074.60;111293;1254;22256;-82
2023/02/25 02:59:42;;;;;;;11.40;10.50;;;;;;;3.67;71.62;98073.08;111297;1254;21971;-81
2023/02/25 03:02:43;;;;;;;12.40;11.40;;;;;;;3.69;71.75;98070.59;111039;1259;22950;-80
2023/02/25 03:05:36;;;;;;;11.40;10.40;;;;;;;3.75;71.83;98071.73;110678;1264;22113;-80
2023/02/25 03:08:38;;;;;;;11.80;10.60;;;;;;;3.77;71.90;98073.15;110495;1264;22058;-82
2023/02/25 03:11:19;;;;;;;12.10;11.00;;;;;;;3.82;72.06;98072.94;110411;1264;22914;-83
2023/02/25 03:14:14;;;;;;;12.60;11.50;;;;;;;3.86;71.99;98072.04;110294;1264;21979;-82
2023/02/25 03:17:29;;;;;;;11.50;10.50;;;;;;;3.83;71.80;98070.79;110496;1265;21995;-83
2023/02/25 03:20:44;;;;;;;12.00;11.00;;;;;;;3.81;71.77;98070.21;110297;1260;23026;-82
2023/02/25 03:24:01;;;;;;;12.40;11.30;;;;;;;3.77;71.74;98068.88;110383;1262;21988;-83
2023/02/25 03:27:01;;;;;;;10.80;9.90;;;;;;;3.74;71.76;98069.35;110057;1268;21982;-83
2023/02/25 03:29:59;;;;;;;11.70;10.70;;;;;;;3.73;71.92;98065.60;110089;1268;21979;-82
2023/02/25 03:32:48;;;;;;;11.40;10.50;;;;;;;3.75;71.93;98067.06;109457;1273;22467;-82
2023/02/25 03:36:01;;;;;;;11.40;10.40;;;;;;;3.76;72.08;98062.75;109711;1273;21995;-85
2023/02/25 03:39:31;;;;;;;12.60;11.50;;;;;;;3.77;72.10;98060.64;109522;1270;21981;-84
2023/02/25 03:42:23;;;;;;;13.30;12.00;;;;;;;3.79;72.07;98061.05;109303;1273;22026;-84
2023/02/25 03:45:09;;;;;;;13.60;12.40;;;;;;;3.81;72.11;98057.15;110135;1267;22999;-82
2023/02/25 03:47:50;;;;;;;13.70;12.40;;;;;;;3.81;71.94;98055.09;110454;1267;23745;-83
2023/02/25 03:54:34;;;;;;;14.70;13.20;;;;;;;3.84;72.29;98054.23;110015;1267;22852;-84
2023/02/25 03:57:27;;;;;;;14.70;13.50;;;;;;;3.88;72.18;98060.42;109800;1270;22016;-82
2023/02/25 04:00:16;;;;;;;17.30;13.50;;;;;;;3.91;72.12;98059.63;109856;1261;23403;-84
2023/02/25 04:02:51;;;;;;;15.30;13.90;;;;;;;3.93;72.04;98061.76;110699;1261;23123;-84
2023/02/25 04:05:48;;;;;;;;;;;;;;;;;;;;;
2023/02/25 04:08:29;;;;;;;15.40;14.10;;;;;;;3.92;71.96;98060.10;110410;1266;21974;-84
2023/02/25 04:11:03;;;;;;;17.40;15.80;;;;;;;3.91;72.04;98058.58;110402;1266;23743;-82
2023/02/25 04:13:40;;;;;;;18.60;15.10;;;;;;;3.93;72.17;98057.48;110248;1266;22735;-83
2023/02/25 04:16:31;;;;;;;14.60;13.20;;;;;;;3.95;72.21;98055.14;110360;1265;24298;-83
2023/02/25 04:19:12;;;;;;;16.20;14.80;;;;;;;3.94;72.31;98049.66;110390;1265;23037;-83
2023/02/25 04:22:33;;;;;;;17.20;14.80;;;;;;;3.96;72.34;98049.73;110243;1269;21997;-84
2023/02/25 04:26:00;;;;;;;15.10;13.60;;;;;;;3.95;72.33;98046.18;110097;1269;22000;-81
2023/02/25 04:28:57;;;;;;;22.50;18.80;;;;;;;3.95;72.34;98044.44;110203;1267;21978;-82
2023/02/25 04:31:51;;;;;;;14.60;13.00;;;;;;;3.96;72.38;98043.70;110783;1260;21985;-82
2023/02/25 04:41:37;;;;;;;13.20;11.90;;;;;;;3.87;72.26;98033.63;110762;1261;21995;-82
2023/02/25 04:44:17;;;;;;;15.60;13.10;;;;;;;3.89;72.24;98030.42;110761;1261;22810;-84
2023/02/25 04:47:53;;;;;;;13.80;12.10;;;;;;;3.89;72.15;98032.14;110466;1261;23022;-82
2023/02/25 04:51:03;;;;;;;13.90;11.00;;;;;;;3.86;72.18;98028.15;109691;1261;21993;-82
2023/02/25 04:54:16;;;;;;;;;;;;;;;;;;;;;
2023/02/25 04:56:56;;;;;;;15.30;10.80;;;;;;;3.88;72.14;98018.11;109488;1270;21980;-84
2023/02/25 04:59:47;;;;;;;12.40;10.40;;;;;;;3.92;71.92;98014.48;109665;1272;21966;-83
2023/02/25 05:03:04;;;;;;;13.70;9.60;;;;;;;3.90;71.78;98014.38;110673;1247;23612;-83
2023/02/25 05:06:07;;;;;;;10.60;9.60;;;;;;;3.86;71.68;98010.95;111183;1256;23615;-84
2023/02/25 05:09:25;;;;;;;14.70;12.10;;;;;;;3.80;71.70;98008.68;111371;1256;21980;-84
2023/02/25 05:12:10;;;;;;;26.60;21.20;;;;;;;3.77;71.65;98007.09;110855;1262;23029;-84
2023/02/25 05:15:04;;;;;;;;;;;;;;;;;;;;;
2023/02/25 05:18:09;;;;;;;13.80;10.80;;;;;;;3.78;71.56;98003.59;110840;1262;23104;-82
2023/02/25 05:20:49;;;;;;;12.50;11.20;;;;;;;3.78;71.59;97998.11;110728;1263;21981;-81
2023/02/25 05:24:11;;;;;;;33.60;29.00;;;;;;;3.80;71.66;97995.77;110728;1260;21972;-81
2023/02/25 05:26:53;;;;;;;19.40;17.50;;;;;;;3.84;71.61;97994.01;110626;1261;22024;-81
2023/02/25 05:29:53;;;;;;;15.10;12.10;;;;;;;3.85;71.44;97992.41;110835;1257;22717;-82
2023/02/25 05:33:16;;;;;;;;;;;;;;;;;;;;;
2023/02/25 05:36:55;;;;;;;11.20;10.00;;;;;;;3.78;71.42;97988.15;111147;1260;22034;-82
2023/02/25 05:40:08;;;;;;;13.20;11.00;;;;;;;3.77;71.72;97988.15;110793;1261;21969;-81
2023/02/25 05:43:22;;;;;;;19.70;17.00;;;;;;;3.79;71.52;97990.83;111175;1260;22902;-82
2023/02/25 05:46:13;;;;;;;24.40;21.50;;;;;;;3.77;71.51;97988.02;111033;1257;22891;-84
2023/02/25 05:49:23;;;;;;;57.60;51.40;;;;;;;3.74;71.48;97988.83;111056;1260;21940;-84
2023/02/25 05:53:31;;;;;;;20.60;18.50;;;;;;;3.73;71.55;97990.80;110611;1262;21942;-84
2023/02/25 05:57:22;;;;;;;13.10;11.70;;;;;;;3.68;71.65;97991.18;110020;1269;22339;-82
2023/02/25 06:05:59;;;;;;;;;;;;;;;;;;;;;
2023/02/25 06:09:09;;;;;;;12.00;10.80;;;;;;;3.65;71.85;97990.11;108926;1283;22012;-83
2023/02/25 06:12:08;;;;;;;14.80;12.30;;;;;;;3.68;71.80;97993.23;108123;1291;22079;-81
2023/02/25 06:15:58;;;;;;;14.80;11.70;;;;;;;3.68;71.86;97996.85;108308;1289;22568;-82
2023/02/25 06:19:21;;;;;;;55.50;47.40;;;;;;;3.69;71.87;97998.01;108739;1289;22011;-82
2023/02/25 06:22:51;;;;;;;17.90;13.90;;;;;;;3.74;72.00;98000.38;108507;1287;23747;-82
2023/02/25 06:26:46;;;;;;;18.30;10.50;;;;;;;3.75;71.93;97999.98;108635;1288;22119;-81
2023/02/25 06:29:38;;;;;;;16.00;10.40;;;;;;;3.74;72.00;98002.09;108420;1290;22016;-81
2023/02/25 06:32:26;;;;;;;13.70;9.40;;;;;;;3.79;72.02;98004.77;108461;1290;23054;-80
2023/02/25 06:35:05;;;;;;;12.00;10.40;;;;;;;3.81;71.88;98009.82;108214;1290;22026;-81
2023/02/25 06:37:46;;;;;;;10.90;8.70;;;;;;;3.82;71.93;98010.30;108500;1290;22882;-80
2023/02/25 06:40:21;;;;;;;9.40;7.60;;;;;;;3.82;72.01;98012.88;108496;1287;21996;-82
2023/02/25 06:44:29;;;;;;;;;;;;;;;;;;;;;
2023/02/25 06:47:29;;;;;;;8.90;7.00;;;;;;;3.81;72.16;98010.52;108527;1284;22009;-81
2023/02/25 06:50:32;;;;;;;;;;;;;;;;;;;;;
2023/02/25 06:53:34;;;;;;;10.30;6.90;;;;;;;3.89;72.41;98009.13;108405;1288;22013;-80
2023/02/25 06:56:29;;;;;;;11.00;8.60;;;;;;;3.93;72.21;98009.79;108438;1283;23738;-81
2023/02/25 06:59:56;;;;;;;13.00;8.20;;;;;;;3.88;72.10;98011.40;108988;1279;22003;-82
2023/02/25 07:03:15;;;;;;;8.20;6.30;;;;;;;3.85;72.20;98010.35;109033;1273;22361;-80
2023/02/25 07:06:07;;;;;;;6.20;5.10;;;;;;;3.83;72.16;98011.61;109016;1276;22750;-83
2023/02/25 07:08:52;;;;;;;5.30;4.80;;;;;;;3.80;72.05;98010.21;109419;1272;21982;-81
2023/02/25 07:11:34;;;;;;;9.80;5.50;;;;;;;3.78;72.12;98010.30;109477;1272;22101;-81
2023/02/25 07:14:28;;;;;;;5.00;4.40;;;;;;;3.80;72.23;98010.41;109556;1272;22032;-79
2023/02/25 07:17:12;;;;;;;5.10;4.30;;;;;;;3.76;72.14;98013.16;109832;1265;21994;-79
2023/02/25 07:20:21;;;;;;;5.10;4.10;;;;;;;3.73;71.99;98013.98;109670;1270;25115;-83
2023/02/25 07:23:31;;;;;;;6.10;4.80;;;;;;;3.69;72.17;98013.14;110011;1265;23745;-80
2023/02/25 07:26:30;;;;;;;6.20;4.50;;;;;;;3.72;72.35;98018.69;109725;1272;21997;-81
2023/02/25 07:29:45;;;;;;;5.70;5.10;;;;;;;3.76;72.35;98019.89;109611;1272;21976;-82
2023/02/25 07:32:45;;;;;;;7.50;5.20;;;;;;;3.79;72.32;98024.39;109724;1272;22577;-81
2023/02/25 07:36:06;;;;;;;4.80;4.00;;;;;;;3.76;71.97;98022.98;109133;1277;23031;-84
2023/02/25 07:39:15;;;;;;;;;;;;;;;3.63;71.70;98022.70;109621;1272;21991;-82
2023/02/25 07:42:22;;;;;;;7.90;5.90;;;;;;;3.46;71.94;98024.02;109627;1272;23047;-83
2023/02/25 07:45:24;;;;;;;4.90;4.50;;;;;;;3.41;72.20;98024.95;109476;1271;21984;-84
2023/02/25 07:48:32;;;;;;;7.10;6.30;;;;;;;3.40;72.34;98025.85;109626;1272;23692;-81
2023/02/25 07:51:28;;;;;;;9.30;7.30;;;;;;;3.41;72.36;98025.65;109537;1271;22742;-82
2023/02/25 07:54:23;;;;;;;9.50;7.30;;;;;;;3.44;72.52;98028.09;109541;1272;22834;-84
2023/02/25 07:57:23;;;;;;;6.90;5.70;;;;;;;3.47;72.47;98031.54;109517;1271;21980;-81
2023/02/25 08:00:46;;;;;;;6.80;6.20;;;;;;;3.54;72.69;98031.73;109657;1267;21995;-82
2023/02/25 08:03:47;;;;;;;8.70;7.80;;;;;;;3.64;72.72;98031.44;110589;1262;23013;-82
2023/02/25 08:07:06;;;;;;;16.00;11.30;;;;;;;3.71;72.91;98025.29;110458;1263;21992;-82
2023/02/25 08:10:32;;;;;;;13.50;11.50;;;;;;;3.78;72.89;98024.45;110155;1268;23634;-82
2023/02/25 08:13:51;;;;;;;;;;;;;;;;;;;;;
2023/02/25 08:17:00;;;;;;;14.00;12.00;;;;;;;3.88;72.72;98026.70;110823;1262;21969;-81
2023/02/25 08:19:50;;;;;;;12.20;11.00;;;;;;;3.90;72.68;98029.03;110788;1262;22449;-81
2023/02/25 08:23:05;;;;;;;18.60;15.30;;;;;;;3.91;72.64;98031.72;110686;1262;23792;-81
2023/02/25 08:26:18;;;;;;;10.70;9.50;;;;;;;3.94;72.58;98032.96;110883;1262;22385;-81
2023/02/25 08:29:09;;;;;;;11.90;10.50;;;;;;;3.96;72.56;98032.52;109330;1262;1848063;-82
2023/02/25 08:32:09;;;;;;;14.90;13.40;;;;;;;3.99;72.65;98033.92;110813;1262;21975;-82
2023/02/25 08:35:15;;;;;;;12.20;10.40;;;;;;;4.09;72.68;98037.39;110960;1262;23143;-79
2023/02/25 08:38:21;;;;;;;11.00;9.90;;;;;;;4.09;72.44;98043.05;110696;1262;22000;-79
2023/02/25 08:41:27;;;;;;;8.10;5.50;;;;;;;4.08;72.35;98043.13;111037;1257;22273;-81
2023/02/25 08:44:48;;;;;;;6.10;5.40;;;;;;;4.06;72.36;98039.59;110686;1262;21981;-82
2023/02/25 08:48:17;;;;;;;6.00;5.40;;;;;;;4.02;72.18;98046.35;110711;1262;23100;-81
2023/02/25 08:51:40;;;;;;;6.80;5.70;;;;;;;4.08;72.72;98045.52;110618;1262;22055;-83
2023/02/25 08:55:31;;;;;;;7.40;5.70;;;;;;;4.18;72.50;98051.45;110276;1268;23689;-82
2023/02/25 08:58:06;;;;;;;5.70;5.00;;;;;;;4.20;72.24;98054.80;110208;1268;22064;-82
2023/02/25 09:00:57;;;;;;;6.70;5.50;;;;;;;4.22;72.14;98053.33;109878;1265;21941;-82
2023/02/25 09:03:53;;;;;;;7.00;5.40;;;;;;;4.22;72.00;98047.77;110204;1265;22897;-83
2023/02/25 09:06:40;;;;;;;;;;;;;;;;;;;;;
2023/02/25 09:09:21;;;;;;;3.60;3.30;;;;;;;4.33;71.99;98045.70;110466;1265;21977;-83
2023/02/25 09:12:14;;;;;;;5.90;4.70;;;;;;;4.34;71.83;98049.30;110832;1257;21962;-82
2023/02/25 09:15:09;;;;;;;4.80;4.00;;;;;;;4.31;71.61;98051.81;110290;1265;22046;-82
2023/02/25 09:18:41;;;;;;;5.70;4.80;;;;;;;4.27;71.57;98054.61;109877;1270;23712;-82
2023/02/25 09:21:39;;;;;;;6.80;4.50;;;;;;;4.29;71.58;98058.14;109716;1267;23620;-82
2023/02/25 09:24:54;;;;;;;6.10;5.30;;;;;;;4.27;71.49;98065.95;109757;1270;21990;-82
2023/02/25 09:28:52;;;;;;;7.90;4.50;;;;;;;4.24;71.31;98068.85;109843;1265;23727;-82
2023/02/25 09:32:10;;;;;;;8.70;5.80;;;;;;;4.18;71.40;98070.53;109233;1279;22057;-81
2023/02/25 09:35:47;;;;;;;;;;;;;;;;;;;;;
2023/02/25 09:38:42;;;;;;;11.70;7.20;;;;;;;4.13;71.47;98081.27;110050;1268;24332;-82
2023/02/25 09:42:37;;;;;;;9.40;6.10;;;;;;;4.18;71.72;98082.08;110116;1268;21975;-81
2023/02/25 09:46:13;;;;;;;8.00;6.50;;;;;;;4.22;71.71;98084.12;110315;1268;21992;-80
2023/02/25 09:50:20;;;;;;;6.20;5.20;;;;;;;4.29;71.84;98090.17;110521;1263;21972;-82
2023/02/25 09:54:25;;;;;;;;;;;;;;;;;;;;;
2023/02/25 09:58:10;;;;;;;6.10;5.50;;;;;;;4.42;71.48;98093.84;109538;1276;21724;-82
2023/02/25 10:01:52;;;;;;;18.30;9.70;;;;;;;4.49;71.62;98102.11;108443;1289;22003;-78
2023/02/25 10:05:07;;;;;;;6.50;5.90;;;;;;;4.58;71.23;98111.45;107873;1291;22038;-75
2023/02/25 10:08:37;;;;;;;7.00;6.40;;;;;;;4.61;71.14;98110.45;107703;1292;22049;-79
2023/02/25 10:11:28;;;;;;;8.00;7.20;;;;;;;4.77;71.71;98114.49;107462;1298;24371;-79
2023/02/25 10:15:05;;;;;;;;;;;;;;;;;;;;;
2023/02/25 10:18:20;;;;;;;7.70;7.00;;;;;;;4.93;70.82;98123.91;107607;1298;23160;-81
2023/02/25 10:22:23;;;;;;;8.40;7.60;;;;;;;4.95;70.52;98120.33;107602;1298;22403;-81
2023/02/25 10:25:50;;;;;;;9.10;8.20;;;;;;;4.92;70.12;98124.83;107733;1293;23007;-79
2023/02/25 10:29:12;;;;;;;9.40;8.50;;;;;;;4.92;70.17;98128.43;108198;1293;23056;-85
2023/02/25 10:32:31;;;;;;;8.70;7.80;;;;;;;4.97;70.13;98128.00;108261;1292;23676;-80
2023/02/25 10:35:30;;;;;;;;;;;;;;;;;;;;;
2023/02/25 10:38:11;;;;;;;6.50;5.90;;;;;;;4.83;69.56;98132.81;107827;1291;22195;-79
2023/02/25 10:41:26;;;;;;;;;;;;;;;;;;;;;
2023/02/25 10:44:18;;;;;;;8.20;7.00;;;;;;;4.64;69.49;98136.86;108648;1282;22001;-79
2023/02/25 10:48:28;;;;;;;6.10;5.00;;;;;;;4.54;69.45;98140.44;109028;1277;22001;-80
2023/02/25 10:51:28;;;;;;;5.20;4.40;;;;;;;4.46;69.71;98140.48;109084;1281;22055;-79
2023/02/25 10:54:34;;;;;;;6.00;5.40;;;;;;;4.42;70.00;98139.81;109065;1277;22201;-79
2023/02/25 10:59:46;;;;;;;6.50;4.80;;;;;;;4.43;70.55;98139.11;108630;1284;23103;-79
2023/02/25 11:02:40;;;;;;;7.50;3.70;;;;;;;4.53;70.57;98141.35;107675;1296;22077;-77
2023/02/25 11:05:39;;;;;;;5.40;4.70;;;;;;;4.61;70.33;98146.31;107494;1296;22022;-79
2023/02/25 11:08:37;;;;;;;5.90;4.20;;;;;;;4.65;70.15;98147.33;107910;1289;22017;-80
2023/02/25 11:11:38;;;;;;;6.30;5.20;;;;;;;4.75;70.39;98145.81;108197;1286;22021;-77
2023/02/25 11:14:17;;;;;;;6.60;4.80;;;;;;;4.78;69.95;98144.77;108643;1288;22062;-78
2023/02/25 11:16:48;;;;;;;6.20;5.60;;;;;;;4.85;69.91;98148.58;108745;1281;23479;-76
2023/02/25 11:19:43;;;;;;;5.80;4.90;;;;;;;5.04;70.15;98149.86;108641;1287;23640;-76
2023/02/25 11:22:38;;;;;;;7.30;6.20;;;;;;;5.23;70.05;98146.85;108389;1287;22585;-79
2023/02/25 11:26:07;;;;;;;4.90;4.30;;;;;;;5.35;69.50;98143.48;108660;1281;23644;-78
2023/02/25 11:28:48;;;;;;;5.80;5.00;;;;;;;5.54;70.79;98148.00;108359;1288;22011;-78
2023/02/25 11:31:43;;;;;;;6.20;4.60;;;;;;;5.95;70.40;98149.14;108189;1288;23683;-77
2023/02/25 11:34:48;;;;;;;4.30;3.70;;;;;;;6.13;68.55;98151.10;108790;1278;22007;-81
2023/02/25 11:37:55;;;;;;;4.30;3.80;;;;;;;6.05;67.35;98151.40;109434;1269;21989;-78
2023/02/25 11:41:20;;;;;;;5.50;3.60;;;;;;;5.99;66.88;98149.98;110021;1270;22024;-79
2023/02/25 11:45:22;;;;;;;;;;;;;;;;;;;;;
2023/02/25 11:48:46;;;;;;;6.80;5.50;;;;;;;5.80;66.27;98162.54;110324;1270;23752;-78
2023/02/25 11:52:23;;;;;;;;;;;;;;;;;;;;;
2023/02/25 11:55:42;;;;;;;5.60;4.90;;;;;;;5.71;66.45;98164.05;110008;1269;21983;-79
2023/02/25 11:59:19;;;;;;;4.80;3.80;;;;;;;5.75;66.22;98165.57;110622;1264;24300;-79
2023/02/25 12:02:19;;;;;;;6.50;3.90;;;;;;;5.77;66.32;98168.52;109809;1271;21984;-78
2023/02/25 12:05:52;;;;;;;;;;;;;;;;;;;;;
2023/02/25 12:09:31;;;;;;;4.10;3.40;;;;;;;5.87;65.78;98179.91;109991;1270;22470;-80
2023/02/25 12:13:51;;;;;;;5.80;5.00;;;;;;;5.68;65.18;98186.48;109931;1273;22012;-79
2023/02/25 12:17:11;;;;;;;8.10;6.50;;;;;;;5.55;65.34;98187.46;108888;1281;23319;-80
2023/02/25 12:20:55;;;;;;;6.50;5.50;;;;;;;5.53;65.67;98182.23;108755;1277;22142;-80
2023/02/25 12:23:36;;;;;;;5.70;4.60;;;;;;;5.49;65.24;98191.77;108802;1281;22093;-78
2023/02/25 12:26:42;;;;;;;5.10;3.80;;;;;;;5.35;65.06;98195.41;108735;1281;22017;-79
2023/02/25 12:30:24;;;;;;;6.00;3.90;;;;;;;5.19;65.31;98194.13;109015;1276;23612;-78
2023/02/25 12:33:06;;;;;;;4.10;2.90;;;;;;;5.08;65.53;98200.86;109224;1276;22361;-78
2023/02/25 12:36:26;;;;;;;4.30;3.10;;;;;;;5.03;65.72;98202.34;109067;1276;22863;-80
2023/02/25 12:40:21;;;;;;;4.70;3.70;;;;;;;4.98;66.04;98206.05;109217;1276;23280;-88
2023/02/25 12:43:56;;;;;;;4.90;3.90;;;;;;;5.02;66.35;98212.20;109053;1276;22004;-79
2023/02/25 12:47:13;;;;;;;5.30;4.30;;;;;;;5.07;66.29;98222.34;109111;1274;21986;-78
2023/02/25 12:51:21;;;;;;;7.30;5.00;;;;;;;4.89;66.02;98227.30;109521;1270;22196;-78
2023/02/25 12:55:39;;;;;;;;;;;;;;;;;;;;;
2023/02/25 12:59:10;;;;;;;6.80;5.50;;;;;;;4.69;66.86;98237.91;110375;1264;21974;-77
2023/02/25 13:03:14;;;;;;;8.30;7.10;;;;;;;4.65;67.01;98241.58;110560;1264;22984;-78
2023/02/25 13:06:43;;;;;;;;;;;;;;;4.60;67.44;98246.96;111053;1256;21926;-79
2023/02/25 13:10:27;;;;;;;12.00;10.80;;;;;;;4.51;67.88;98253.40;111135;1256;21955;-77
2023/02/25 13:14:11;;;;;;;;;;;;;;;4.51;68.16;98257.39;110804;1263;23585;-78
2023/02/25 13:18:08;;;;;;;;;;;;;;;;;;;;;
2023/02/25 13:21:54;;;;;;;8.40;6.30;;;;;;;4.44;68.43;98265.10;110653;1258;22011;-80
2023/02/25 13:25:39;;;;;;;12.60;10.40;;;;;;;4.41;68.59;98271.08;110318;1259;21979;-80
2023/02/25 13:29:02;;;;;;;9.10;7.50;;;;;;;4.47;68.79;98276.33;110157;1271;22436;-79
2023/02/25 13:32:45;;;;;;;7.40;6.50;;;;;;;4.53;68.92;98271.95;109946;1267;22295;-79
2023/02/25 13:36:35;;;;;;;6.20;5.40;;;;;;;4.50;68.85;98272.05;109049;1276;23043;-79
2023/02/25 13:40:15;;;;;;;7.00;6.10;;;;;;;4.51;68.97;98274.27;108962;1281;23146;-80
2023/02/25 13:47:32;;;;;;;9.00;7.70;;;;;;;4.59;69.52;98277.32;108715;1280;22167;-79
2023/02/25 13:51:04;;;;;;;;;;;;;;;;;;;;;
2023/02/25 13:55:28;;;;;;;8.20;7.40;;;;;;;4.69;69.27;98287.55;108880;1279;23644;-77
2023/02/25 13:58:51;;;;;;;4.20;3.70;;;;;;;4.60;68.95;98298.83;109042;1279;22004;-77
2023/02/25 14:02:00;;;;;;;5.30;4.30;;;;;;;4.47;68.66;98298.70;108929;1279;22760;-78
2023/02/25 14:05:54;;;;;;;6.80;5.50;;;;;;;4.33;68.79;98301.08;109518;1272;22643;-77
2023/02/25 14:09:26;;;;;;;8.50;6.60;;;;;;;4.24;69.27;98304.41;109407;1272;22177;-78
2023/02/25 14:12:37;;;;;;;;;;;;;;;4.19;69.59;98309.29;109647;1272;21941;-78
2023/02/25 14:17:08;;;;;;;6.00;4.50;;;;;;;4.14;70.17;98314.51;109931;1264;22014;-78
2023/02/25 14:20:33;;;;;;;;;;;;;;;;;;;;;
2023/02/25 14:24:01;;;;;;;7.30;4.70;;;;;;;4.23;70.48;98322.54;109201;1271;22765;-77
2023/02/25 14:27:18;;;;;;;6.10;4.10;;;;;;;4.20;70.04;98329.56;108920;1278;21996;-81
2023/02/25 14:30:33;;;;;;;6.10;5.00;;;;;;;4.13;70.06;98327.76;109018;1274;22395;-78
2023/02/25 14:34:10;;;;;;;;;;;;;;;;;;;;;
2023/02/25 14:37:38;;;;;;;5.60;4.80;;;;;;;4.03;70.18;98339.09;108818;1280;22010;-79
2023/02/25 14:40:55;;;;;;;6.20;4.80;;;;;;;3.97;70.26;98346.57;108621;1281;22071;-78
2023/02/25 14:44:22;;;;;;;6.60;5.80;;;;;;;3.91;70.41;98356.24;108423;1281;22020;-79
2023/02/25 14:47:45;;;;;;;7.80;6.50;;;;;;;3.86;70.64;98361.98;108674;1281;22008;-77
2023/02/25 14:51:15;;;;;;;17.20;15.50;;;;;;;3.84;70.78;98366.18;108677;1281;21995;-79
2023/02/25 14:54:09;;;;;;;7.70;5.00;;;;;;;3.83;70.86;98368.64;108635;1281;22005;-78
2023/02/25 14:58:47;;;;;;;5.40;4.60;;;;;;;3.79;71.10;98375.00;110277;1264;22049;-76
2023/02/25 15:02:12;;;;;;;6.70;4.50;;;;;;;3.75;71.14;98389.27;109647;1271;22448;-78
2023/02/25 15:05:09;;;;;;;5.50;4.30;;;;;;;3.75;71.17;98401.34;109841;1272;22125;-78
2023/02/25 15:08:20;;;;;;;4.50;3.70;;;;;;;3.73;71.34;98406.24;109510;1272;23087;-78
2023/02/25 15:11:10;;;;;;;4.70;4.10;;;;;;;3.70;71.31;98415.81;109550;1272;21988;-78
2023/02/25 15:14:46;;;;;;;7.50;5.90;;;;;;;3.66;71.42;98420.77;109072;1276;23637;-78
2023/02/25 15:18:59;;;;;;;7.40;5.50;;;;;;;3.64;71.49;98430.00;109047;1273;23002;-78
2023/02/25 15:22:42;;;;;;;;;;;;;;;;;;;;;
2023/02/25 15:25:52;;;;;;;5.20;3.40;;;;;;;3.72;71.69;98449.30;109145;1276;23754;-79
2023/02/25 15:29:48;;;;;;;;;;;;;;;;;;;;;
2023/02/25 15:33:43;;;;;;;5.70;2.10;;;;;;;3.42;70.98;98472.80;109123;1274;23734;-79
2023/02/25 15:37:27;;;;;;;;;;;;;;;;;;;;;
2023/02/25 15:40:26;;;;;;;;;;;;;;;;;;;;;
2023/02/25 15:48:19;;;;;;;;;;;;;;;;;;;;;
2023/02/25 15:52:38;;;;;;;;;;;;;;;;;;;;;
2023/02/25 15:57:23;;;;;;;;;;;;;;;;;;;;;
2023/02/25 16:02:20;;;;;;;9.50;5.90;;;;;;;2.95;72.32;98527.67;108683;1283;22481;-79
2023/02/25 16:05:17;;;;;;;7.50;5.00;;;;;;;2.94;72.61;98537.52;108899;1279;22027;-78
2023/02/25 16:09:24;;;;;;;;;;;;;;;;;;;;;
2023/02/25 16:13:33;;;;;;;;;;;;;;;;;;;;;
2023/02/25 16:18:00;;;;;;;;;;;;;;;;;;;;;
2023/02/25 16:21:08;;;;;;;14.80;13.20;;;;;;;2.89;72.95;98577.52;107725;1295;22805;-78
2023/02/25 16:24:21;;;;;;;12.10;8.90;;;;;;;2.92;72.92;98583.10;107500;1295;22073;-78
2023/02/25 16:27:21;;;;;;;2.60;2.30;;;;;;;2.96;73.13;98595.52;107138;1298;23758;-78
2023/02/25 16:31:02;;;;;;;;;;;;;;;;;;;;;
2023/02/25 16:33:45;;;;;;;7.50;6.10;;;;;;;3.37;74.42;98609.86;108018;1287;23772;-78
2023/02/25 16:37:45;;;;;;;7.20;5.10;;;;;;;3.52;73.64;98617.59;108827;1281;23004;-80